• Join FlightAware (Why Join?)
  • Login
  • US Flag 
03:05AM EST


 

Airport Tracker/Info


-or-


 

Live Flight TrackerFlight Track Log ✈ FDX1570 ✈ 18-May-2013 ✈ KMEM - KALB

Flight Track Log - Related Links

Times and Time Zones

All times are in EDT time to prevent confusion due to time zone crossing. See the FDX1570 flight status page for this flight to view local times or setup timezone preferences in your user account.

Time Position Orientation Groundspeed Altitude Reporting Facility
EDT Latitude Longitude Course Direction KTS MPH feet Rate Location/Type
04:20AM 35.0167 -89.9667 180° South 173 199 1,600  Level KMEM
04:20AM 35.0000 -89.9667 180° South 175 201 2,400 2,460 Climbing KMEM
04:21AM 34.9333 -89.9333 158° South 286 329 5,300 3,000 Climbing KMEM
04:22AM 34.9333 -89.8333 90° East 295 339 8,900 2,520 Climbing KMEM
04:23AM 34.9786 -89.7336 61° Northeast 327 376 10,700 2,100 Climbing Memphis Center
04:24AM 35.0281 -89.6167 63° Northeast 368 423 13,300 2,400 Climbing Memphis Center
04:25AM 35.0775 -89.5094 61° Northeast 383 441 15,600 2,280 Climbing Memphis Center
04:26AM 35.1286 -89.3872 63° Northeast 397 457 17,900 2,400 Climbing Memphis Center
04:27AM 35.1861 -89.2594 61° Northeast 410 472 20,500 2,460 Climbing Memphis Center
04:28AM 35.2453 -89.1292 61° Northeast 424 488 22,900 2,400 Climbing Memphis Center
04:29AM 35.3128 -88.9983 58° Northeast 445 512 25,300 2,220 Climbing Memphis Center
04:30AM 35.3903 -88.8492 57° Northeast 453 521 27,400 2,040 Climbing Memphis Center
04:36AM 35.7670 -88.1130 57° Northeast 470 541 38,300 1,860 Climbing FlightAware
04:36AM 35.8180 -88.0130 58° Northeast 466 536 39,000 480 Climbing FlightAware
04:37AM 35.8630 -87.9230 58° Northeast 469 540 39,000  Level FlightAware
04:38AM 35.9110 -87.8350 56° Northeast 475 547 39,000  Level FlightAware
04:38AM 35.9630 -87.7450 54° Northeast 477 549 39,000  Level FlightAware
04:39AM 36.0230 -87.6430 54° Northeast 480 552 39,000  Level FlightAware
04:40AM 36.0750 -87.5570 53° Northeast 481 554 39,000  Level FlightAware
04:40AM 36.1330 -87.4570 54° Northeast 480 552 39,000  Level FlightAware
04:41AM 36.1850 -87.3680 54° Northeast 479 551 39,000  Level FlightAware
04:42AM 36.2450 -87.2660 54° Northeast 479 551 39,000  Level FlightAware
04:43AM 36.2970 -87.1770 54° Northeast 478 550 39,000  Level FlightAware
04:43AM 36.3480 -87.0900 54° Northeast 477 549 39,000  Level FlightAware
04:44AM 36.3873 -87.0208 55° Northeast 39,000  Level FlightAware ADS-B
04:44AM 36.4287 -86.9498 54° Northeast 477 549 39,000  Level FlightAware ADS-B
04:45AM 36.4710 -86.8765 54° Northeast 476 548 39,000  Level FlightAware ADS-B
04:45AM 36.5150 -86.7990 55° Northeast 476 548 39,000  Level FlightAware
04:46AM 36.5660 -86.7100 54° Northeast 474 545 39,000  Level FlightAware
04:46AM 36.5795 -86.6874 53° Northeast 476 548 39,000  Level FlightAware ADS-B
04:47AM 36.6183 -86.6182 55° Northeast 474 545 39,000  Level FlightAware ADS-B
04:47AM 36.6690 -86.5290 55° Northeast 472 543 39,000  Level FlightAware
04:48AM 36.7320 -86.4190 54° Northeast 471 542 39,000  Level FlightAware
04:49AM 36.7980 -86.3040 54° Northeast 468 539 39,000  Level FlightAware
04:49AM 36.8227 -86.2598 55° Northeast 468 539 39,000  Level FlightAware ADS-B
04:50AM 36.8605 -86.1935 55° Northeast 468 539 39,000  Level FlightAware ADS-B
04:50AM 36.8983 -86.1251 55° Northeast 469 540 39,000  Level FlightAware ADS-B
04:51AM 36.9360 -86.0586 55° Northeast 469 540 39,000  Level FlightAware ADS-B
04:51AM 36.9737 -85.9920 55° Northeast 470 541 39,000  Level FlightAware ADS-B
04:52AM 37.0125 -85.9228 55° Northeast 472 543 39,000  Level FlightAware ADS-B
04:52AM 37.0512 -85.8532 55° Northeast 473 544 39,000  Level FlightAware ADS-B
04:53AM 37.0893 -85.7837 55° Northeast 474 545 39,000  Level FlightAware ADS-B
04:53AM 37.1283 -85.7140 55° Northeast 474 545 39,000  Level FlightAware ADS-B
04:54AM 37.1667 -85.6464 55° Northeast 474 545 39,000  Level FlightAware ADS-B
04:55AM 37.2043 -85.5764 56° Northeast 474 545 39,000  Level FlightAware ADS-B
04:55AM 37.2424 -85.5086 55° Northeast 474 545 39,000  Level FlightAware ADS-B
04:56AM 37.2806 -85.4386 56° Northeast 475 547 39,000  Level FlightAware ADS-B
04:56AM 37.3182 -85.3707 55° Northeast 475 547 39,000  Level FlightAware ADS-B
04:57AM 37.3556 -85.3026 55° Northeast 476 548 39,000  Level FlightAware ADS-B
04:57AM 37.3936 -85.2341 55° Northeast 478 550 39,000  Level FlightAware ADS-B
04:58AM 37.4321 -85.1631 56° Northeast 478 550 39,000  Level FlightAware ADS-B
04:58AM 37.4716 -85.0922 55° Northeast 479 551 39,000  Level FlightAware ADS-B
04:59AM 37.5099 -85.0207 56° Northeast 478 550 39,000  Level FlightAware ADS-B
04:59AM 37.5480 -84.9518 55° Northeast 479 551 39,000  Level FlightAware ADS-B
05:00AM 37.5859 -84.8804 56° Northeast 480 552 39,000  Level FlightAware ADS-B
05:00AM 37.6236 -84.8112 55° Northeast 479 551 39,000  Level FlightAware ADS-B
05:01AM 37.6610 -84.7418 56° Northeast 479 551 39,000  Level FlightAware ADS-B
05:01AM 37.6990 -84.6725 55° Northeast 480 552 39,000  Level FlightAware ADS-B
05:02AM 37.7370 -84.6009 56° Northeast 478 550 39,000  Level FlightAware ADS-B
05:02AM 37.7749 -84.5317 55° Northeast 479 551 39,000  Level FlightAware ADS-B
05:03AM 37.8128 -84.4597 56° Northeast 480 552 39,000  Level FlightAware ADS-B
05:03AM 37.8512 -84.3877 56° Northeast 481 554 39,000  Level FlightAware ADS-B
05:04AM 37.8895 -84.3176 55° Northeast 482 555 39,000  Level FlightAware ADS-B
05:04AM 37.9283 -84.2452 56° Northeast 482 555 39,000  Level FlightAware ADS-B
05:05AM 37.9750 -84.1562 56° Northeast 481 554 39,000  Level FlightAware ADS-B
05:05AM 38.0184 -84.0742 56° Northeast 481 554 39,000  Level FlightAware ADS-B
05:06AM 38.0670 -83.9830 56° Northeast 480 552 39,000  Level FlightAware
05:07AM 38.1160 -83.8900 56° Northeast 479 551 39,000  Level FlightAware
05:07AM 38.1580 -83.8110 56° Northeast 479 551 39,000  Level FlightAware
05:08AM 38.2000 -83.7310 56° Northeast 479 551 39,000  Level FlightAware
05:09AM 38.2420 -83.6520 56° Northeast 479 551 39,000  Level FlightAware
05:10AM 38.2950 -83.5530 56° Northeast 479 551 39,000  Level FlightAware
05:10AM 38.3370 -83.4730 56° Northeast 479 551 39,000  Level FlightAware
05:11AM 38.4180 -83.3100 58° Northeast 471 542 39,000  Level FlightAware
05:12AM 38.4780 -83.1940 57° Northeast 469 540 39,000  Level FlightAware
05:12AM 38.5300 -83.0920 57° Northeast 468 539 39,000  Level FlightAware
05:13AM 38.5740 -83.0070 56° Northeast 466 536 39,000  Level FlightAware
05:14AM 38.6310 -82.8940 57° Northeast 464 534 39,000  Level FlightAware
05:15AM 38.6780 -82.8020 57° Northeast 463 533 39,000  Level FlightAware
05:15AM 38.7250 -82.7100 57° Northeast 462 532 39,000  Level FlightAware
05:16AM 38.7770 -82.6090 57° Northeast 464 534 39,000  Level FlightAware
05:17AM 38.8240 -82.5130 58° Northeast 468 539 39,000  Level FlightAware
05:17AM 38.8710 -82.4200 57° Northeast 471 542 39,000  Level FlightAware
05:18AM 38.9250 -82.3140 57° Northeast 474 545 39,000  Level FlightAware
05:19AM 38.9730 -82.2160 58° Northeast 477 549 39,000  Level FlightAware
05:19AM 39.0250 -82.1130 57° Northeast 479 551 39,000  Level FlightAware
05:20AM 39.0730 -82.0180 57° Northeast 479 551 39,000  Level FlightAware
05:21AM 39.1280 -81.9040 58° Northeast 480 552 39,000  Level FlightAware
05:22AM 39.1750 -81.8100 57° Northeast 481 554 39,000  Level FlightAware
05:22AM 39.2230 -81.7130 57° Northeast 482 555 39,000  Level FlightAware
05:23AM 39.2770 -81.6040 57° Northeast 481 554 39,000  Level FlightAware
05:24AM 39.3230 -81.5090 58° Northeast 482 555 39,000  Level FlightAware
05:24AM 39.3770 -81.3970 58° Northeast 481 554 39,000  Level FlightAware
05:25AM 39.4240 -81.3000 58° Northeast 481 554 39,000  Level FlightAware
05:26AM 39.4720 -81.2020 58° Northeast 481 554 39,000  Level FlightAware
05:26AM 39.5180 -81.1070 58° Northeast 481 554 39,000  Level FlightAware
05:27AM 39.5740 -80.9920 58° Northeast 482 555 39,000  Level FlightAware
05:28AM 39.6210 -80.8970 57° Northeast 482 555 39,000  Level FlightAware
05:29AM 39.6750 -80.7880 57° Northeast 480 552 39,000  Level FlightAware
05:29AM 39.7230 -80.6910 57° Northeast 480 552 39,000  Level FlightAware
05:30AM 39.7750 -80.5840 58° Northeast 481 554 39,000  Level FlightAware
05:31AM 39.8230 -80.4860 57° Northeast 480 552 39,000  Level FlightAware
05:31AM 39.8690 -80.3910 58° Northeast 480 552 39,000  Level FlightAware
05:32AM 39.9250 -80.2760 58° Northeast 478 550 39,000  Level FlightAware
05:33AM 39.9720 -80.1790 58° Northeast 476 548 39,000  Level FlightAware
05:33AM 40.0240 -80.0700 58° Northeast 475 547 39,000  Level FlightAware
05:34AM 40.0720 -79.9720 57° Northeast 474 545 39,000  Level FlightAware
05:35AM 40.1180 -79.8730 59° Northeast 475 547 39,000  Level FlightAware
05:36AM 40.1690 -79.7680 58° Northeast 475 547 39,000  Level FlightAware
05:36AM 40.2160 -79.6680 58° Northeast 476 548 39,000  Level FlightAware
05:37AM 40.2700 -79.5550 58° Northeast 476 548 39,000  Level FlightAware
05:38AM 40.3130 -79.4640 58° Northeast 477 549 39,000  Level FlightAware
05:38AM 40.3620 -79.3610 58° Northeast 479 551 39,000  Level FlightAware
05:39AM 40.4080 -79.2610 59° Northeast 482 555 39,000  Level FlightAware
05:43AM 40.6570 -78.7260 58° Northeast 479 551 39,000  Level FlightAware
05:43AM 40.7040 -78.6230 59° Northeast 480 552 39,000  Level FlightAware
05:44AM 40.7470 -78.5280 59° Northeast 479 551 39,000  Level FlightAware
05:45AM 40.7910 -78.4330 59° Northeast 479 551 39,000  Level FlightAware
05:45AM 40.8380 -78.3310 59° Northeast 480 552 39,000  Level FlightAware
05:46AM 40.8900 -78.2170 59° Northeast 481 554 39,000  Level FlightAware
05:47AM 40.9360 -78.1140 59° Northeast 481 554 39,000  Level FlightAware
05:47AM 40.9544 -78.0732 59° Northeast 483 556 39,000  Level FlightAware ADS-B
05:47AM 40.9974 -77.9769 59° Northeast 483 556 39,000  Level FlightAware ADS-B
05:48AM 41.0416 -77.8781 59° Northeast 482 555 39,000  Level FlightAware ADS-B
05:49AM 41.0765 -77.8019 59° Northeast 482 555 39,000  Level FlightAware ADS-B
05:49AM 41.1141 -77.7181 59° Northeast 483 556 39,000  Level FlightAware ADS-B
05:50AM 41.1496 -77.6363 60° Northeast 485 558 39,000  Level FlightAware ADS-B
05:50AM 41.1870 -77.5517 60° Northeast 486 559 39,000  Level FlightAware ADS-B
05:51AM 41.2301 -77.4570 59° Northeast 486 559 39,000  Level FlightAware ADS-B
05:51AM 41.2729 -77.3741 55° Northeast 483 556 39,000  Level FlightAware ADS-B
05:52AM 41.3134 -77.3027 53° Northeast 481 554 39,000  Level FlightAware ADS-B
05:52AM 41.3550 -77.2296 53° Northeast 481 554 39,000  Level FlightAware ADS-B
05:53AM 41.3956 -77.1590 53° Northeast 481 554 39,000  Level FlightAware ADS-B
05:53AM 41.4363 -77.0883 52° Northeast 480 552 39,000  Level FlightAware ADS-B
05:54AM 41.4771 -77.0180 52° Northeast 479 551 39,000  Level FlightAware ADS-B
05:54AM 41.5193 -76.9429 53° Northeast 479 551 39,000  Level FlightAware ADS-B
05:55AM 41.5603 -76.8724 52° Northeast 480 552 39,000  Level FlightAware ADS-B
05:56AM 41.6006 -76.8016 53° Northeast 481 554 39,000  Level FlightAware ADS-B
05:56AM 41.6418 -76.7283 53° Northeast 480 552 39,000  Level FlightAware ADS-B
05:57AM 41.6822 -76.6574 53° Northeast 480 552 39,000  Level FlightAware ADS-B
05:57AM 41.7237 -76.5840 53° Northeast 481 554 39,000 -720 Level FlightAware ADS-B
05:58AM 41.7642 -76.5129 53° Northeast 479 551 38,300 -2,220 Descending FlightAware ADS-B
05:58AM 41.8051 -76.4393 53° Northeast 483 556 36,800 -3,420 Descending FlightAware ADS-B
05:59AM 41.8463 -76.3669 53° Northeast 490 564 34,900 -3,960 Descending FlightAware ADS-B
05:59AM 41.8889 -76.2907 53° Northeast 499 574 32,800 -4,320 Descending FlightAware ADS-B
06:00AM 41.9409 -76.1961 54° Northeast 503 579 30,000 -3,900 Descending FlightAware ADS-B
06:01AM 42.0160 -76.0620 53° Northeast 502 578 26,400 -2,760 Descending FlightAware
06:01AM 42.0740 -75.9580 53° Northeast 499 574 25,200 -1,740 Descending FlightAware
06:02AM 42.1170 -75.8790 54° Northeast 493 567 24,100 -900 Descending FlightAware
06:03AM 42.1760 -75.7710 54° Northeast 480 552 24,000 -120 Descending FlightAware
06:04AM 42.2290 -75.6780 52° Northeast 480 552 24,000  Level FlightAware
06:04AM 42.2740 -75.5960 53° Northeast 480 552 24,000  Level FlightAware
06:05AM 42.3190 -75.5150 53° Northeast 480 552 24,000  Level FlightAware
06:06AM 42.3650 -75.4330 53° Northeast 480 552 24,000  Level FlightAware
06:06AM 42.4220 -75.3310 53° Northeast 480 552 24,000 -4,980 Level FlightAware
06:07AM 42.3903 -75.0939 53° Northeast 464 534 17,600 -5,400 Descending Boston Center
06:08AM 42.4333 -74.9408 69° East 449 517 16,100 -1,440 Descending Boston Center
06:09AM 42.4761 -74.7906 69° East 435 501 14,800 -1,440 Descending Boston Center
06:09AM 42.4919 -74.7236 72° East 418 481 14,100 -1,320 Descending Boston Center
06:10AM 42.5144 -74.6428 69° East 418 481 13,500 -1,980 Descending Boston Center
06:10AM 42.5389 -74.5619 68° East 403 464 11,900 -2,400 Descending Boston Center
06:11AM 42.5547 -74.5006 71° East 405 466 11,100 -1,020 Descending Boston Center
06:11AM 42.5769 -74.4278 67° East 384 442 10,900 -120 Descending Boston Center
06:12AM 42.5861 -74.3747 77° East 380 437 11,000 -720 Climbing Boston Center
06:12AM 42.5975 -74.3100 77° East 301 346 10,200 -1,920 Descending Boston Center
06:13AM 42.6025 -74.2622 82° East 314 361 9,100 -2,460 Descending Boston Center
06:13AM 42.6119 -74.2033 78° East 279 321 7,700 -2,340 Descending Boston Center
06:14AM 42.6147 -74.1556 85° East 290 334 6,800 -2,520 Descending Boston Center
06:14AM 42.6217 -74.0992 80° East 272 313 5,200 -2,100 Descending Boston Center
06:15AM 42.6264 -74.0683 78° East 274 315 4,700 -1,800 Descending Boston Center
06:15AM 42.6336 -74.0036 81° East 258 297 3,400 -1,200 Descending Boston Center
06:16AM 42.6381 -73.9756 78° East 262 302 3,500 -120 Climbing Boston Center
06:16AM 42.6431 -73.9192 83° East 210 242 3,300 -420 Descending Boston Center
06:17AM 42.6453 -73.8967 82° East 233 268 3,100 -840 Descending Boston Center
06:17AM 42.6503 -73.8431 83° East 187 215 2,500 -600 Descending Boston Center
06:18AM 42.6544 -73.8261 72° East 204 235 2,500 -900 Level Boston Center
06:18AM 42.6778 -73.8042 35° Northeast 150 173 1,600 -1,140 Descending Boston Center
06:19AM 42.7111 -73.8078 355° North 115 132 700 -900 Descending Boston Center